Time;durP1;ratioP1;P1;durP2;ratioP2;P2;SDS_P1;SDS_P2;PMS_P1;PMS_P2;Temp;Humidity;BMP_temperature;BMP_pressure;BME280_temperature;BME280_humidity;BME280_pressure;Samples;Min_cycle;Max_cycle;Signal;HPM_P1;HPM_P2
2022/08/20 00:00:46;;;;;;;5.95;5.45;;;;;;;;;;5054901;28;20232;-83
2022/08/20 00:03:20;;;;;;;5.68;5.18;;;;;;;;;;5055114;28;20202;-82
2022/08/20 00:05:52;;;;;;;6.35;5.78;;;;;;;;;;5054470;28;20248;-84
2022/08/20 00:08:20;;;;;;;5.90;5.40;;;;;;;;;;5054737;28;20197;-83
2022/08/20 00:10:49;;;;;;;5.22;4.72;;;;;;;;;;5054482;28;20646;-83
2022/08/20 00:13:20;;;;;;;5.68;5.18;;;;;;;;;;5053924;28;20258;-84
2022/08/20 00:15:50;;;;;;;5.25;4.85;;;;;;;;;;5054658;28;20194;-84
2022/08/20 00:18:17;;;;;;;6.22;5.75;;;;;;;;;;5053909;28;20201;-83
2022/08/20 00:20:48;;;;;;;5.93;5.43;;;;;;;;;;5056539;28;20232;-83
2022/08/20 00:23:17;;;;;;;6.63;6.00;;;;;;;;;;5059575;28;20640;-83
2022/08/20 00:25:46;;;;;;;7.15;6.50;;;;;;;;;;5058655;28;20225;-83
2022/08/20 00:28:14;;;;;;;5.95;5.40;;;;;;;;;;5058616;28;20237;-83
2022/08/20 00:30:44;;;;;;;7.50;6.82;;;;;;;;;;5059289;28;20648;-83
2022/08/20 00:33:17;;;;;;;6.00;5.50;;;;;;;;;;5058630;28;20263;-82
2022/08/20 00:35:48;;;;;;;5.57;5.18;;;;;;;;;;5059083;28;20261;-84
2022/08/20 00:38:16;;;;;;;8.45;7.68;;;;;;;;;;5059368;28;20235;-84
2022/08/20 00:40:50;;;;;;;8.20;7.47;;;;;;;;;;5058050;28;20237;-82
2022/08/20 00:43:43;;;;;;;7.68;7.07;;;;;;;;;;5059100;28;20808;-83
2022/08/20 00:46:16;;;;;;;7.43;6.72;;;;;;;;;;5045090;28;20670;-84
2022/08/20 00:48:49;;;;;;;8.00;7.20;;;;;;;;;;5057387;28;20197;-83
2022/08/20 00:51:26;;;;;;;7.93;6.90;;;;;;;;;;5058142;28;20249;-83
2022/08/20 00:53:55;;;;;;;9.65;8.80;;;;;;;;;;5058197;28;20231;-84
2022/08/20 00:56:23;;;;;;;9.38;8.07;;;;;;;;;;5058592;28;20666;-83
2022/08/20 00:58:51;;;;;;;6.88;6.28;;;;;;;;;;5057610;28;20232;-82
2022/08/20 01:01:19;;;;;;;8.25;7.45;;;;;;;;;;5057771;28;20225;-83
2022/08/20 01:03:48;;;;;;;9.32;8.52;;;;;;;;;;5057581;28;20237;-84
2022/08/20 01:06:16;;;;;;;10.35;9.27;;;;;;;;;;5058498;28;20212;-83
2022/08/20 01:08:44;;;;;;;13.82;9.38;;;;;;;;;;5058107;28;20581;-83
2022/08/20 01:11:15;;;;;;;8.75;7.95;;;;;;;;;;5078709;23;20261;-86
2022/08/20 01:13:44;;;;;;;11.10;10.00;;;;;;;;;;5015820;28;20647;-85
2022/08/20 01:16:19;;;;;;;9.00;8.10;;;;;;;;;;5015666;28;20281;-86
2022/08/20 01:18:49;;;;;;;8.95;8.15;;;;;;;;;;5015165;28;20253;-85
2022/08/20 01:21:22;;;;;;;10.90;9.80;;;;;;;;;;5015506;28;20234;-86
2022/08/20 01:23:56;;;;;;;10.95;9.80;;;;;;;;;;5015569;28;20606;-85
2022/08/20 01:26:28;;;;;;;10.68;9.68;;;;;;;;;;5015202;28;20577;-86
2022/08/20 01:29:00;;;;;;;11.60;10.48;;;;;;;;;;5015126;28;20753;-86
2022/08/20 01:31:31;;;;;;;12.02;10.80;;;;;;;;;;5014480;28;20645;-86
2022/08/20 01:34:01;;;;;;;12.45;11.27;;;;;;;;;;5014869;28;20228;-86
2022/08/20 01:36:35;;;;;;;11.93;10.75;;;;;;;;;;5015291;28;20191;-86
2022/08/20 01:39:03;;;;;;;11.38;10.20;;;;;;;;;;5015271;28;20662;-85
2022/08/20 01:41:51;;;;;;;11.48;10.27;;;;;;;;;;5015030;28;20262;-85
2022/08/20 01:44:20;;;;;;;12.80;11.50;;;;;;;;;;5014993;28;20223;-86
2022/08/20 01:46:51;;;;;;;11.00;9.95;;;;;;;;;;5014431;28;20199;-85
2022/08/20 01:49:22;;;;;;;13.30;11.95;;;;;;;;;;5014860;28;20258;-86
2022/08/20 01:51:51;;;;;;;10.75;9.75;;;;;;;;;;5014800;28;20273;-86
2022/08/20 01:54:18;;;;;;;12.00;10.15;;;;;;;;;;5014867;28;20241;-86
2022/08/20 01:56:59;;;;;;;13.75;12.43;;;;;;;;;;5014369;28;20230;-85
2022/08/20 01:59:27;;;;;;;13.95;12.55;;;;;;;;;;5014453;28;20261;-86
2022/08/20 02:01:55;;;;;;;13.32;11.93;;;;;;;;;;5014732;28;20235;-87
2022/08/20 02:04:23;;;;;;;12.55;11.25;;;;;;;;;;5014550;28;20199;-86
2022/08/20 02:06:54;;;;;;;14.70;12.35;;;;;;;;;;5014549;28;20207;-86
2022/08/20 02:09:22;;;;;;;13.68;11.82;;;;;;;;;;5014561;28;20250;-86
2022/08/20 02:11:52;;;;;;;14.15;12.65;;;;;;;;;;5014185;28;20699;-85
2022/08/20 02:14:21;;;;;;;13.50;12.15;;;;;;;;;;5014540;28;20204;-86
2022/08/20 02:16:49;;;;;;;12.00;10.32;;;;;;;;;;5014014;28;20265;-85
2022/08/20 02:19:24;;;;;;;11.70;10.55;;;;;;;;;;5014016;28;20255;-85
2022/08/20 02:21:56;;;;;;;12.82;11.20;;;;;;;;;;5014357;28;20242;-86
2022/08/20 02:24:23;;;;;;;11.70;10.57;;;;;;;;;;5014009;28;20230;-86
2022/08/20 02:26:51;;;;;;;17.85;14.20;;;;;;;;;;5014096;28;20286;-86
2022/08/20 02:29:20;;;;;;;12.02;10.88;;;;;;;;;;5013893;28;20259;-86
2022/08/20 02:31:48;;;;;;;16.45;13.57;;;;;;;;;;5013881;28;20203;-85
2022/08/20 02:34:16;;;;;;;15.82;13.13;;;;;;;;;;5013704;28;20227;-86
2022/08/20 02:36:48;;;;;;;14.52;13.15;;;;;;;;;;5013634;28;20223;-87
2022/08/20 02:39:16;;;;;;;13.57;11.43;;;;;;;;;;5013920;28;20246;-86
2022/08/20 02:41:43;;;;;;;14.23;12.73;;;;;;;;;;5014673;28;20249;-86
2022/08/20 02:44:11;;;;;;;14.48;13.18;;;;;;;;;;5013986;28;20675;-87
2022/08/20 02:46:40;;;;;;;13.43;12.13;;;;;;;;;;5014585;28;20257;-86
2022/08/20 02:49:07;;;;;;;15.05;13.40;;;;;;;;;;5014296;28;20723;-86
2022/08/20 02:51:35;;;;;;;13.15;11.85;;;;;;;;;;5014657;28;20235;-86
2022/08/20 02:54:03;;;;;;;13.93;12.50;;;;;;;;;;5014112;28;20195;-86
2022/08/20 02:56:30;;;;;;;13.50;12.15;;;;;;;;;;5012891;28;20664;-86
2022/08/20 02:58:58;;;;;;;14.32;12.85;;;;;;;;;;5012925;28;20262;-85
2022/08/20 03:01:26;;;;;;;12.18;10.98;;;;;;;;;;5013509;28;20215;-86
2022/08/20 03:03:57;;;;;;;14.95;12.18;;;;;;;;;;5013547;28;20230;-86
2022/08/20 03:06:25;;;;;;;16.50;12.95;;;;;;;;;;5013318;28;20270;-85
2022/08/20 03:08:53;;;;;;;13.38;11.65;;;;;;;;;;5013320;28;20715;-86
2022/08/20 03:11:20;;;;;;;11.30;10.23;;;;;;;;;;5012899;28;20298;-85
2022/08/20 03:13:48;;;;;;;10.93;9.18;;;;;;;;;;5013114;28;20231;-86
2022/08/20 03:16:16;;;;;;;8.35;7.43;;;;;;;;;;5013442;28;20313;-85
2022/08/20 03:18:46;;;;;;;8.45;7.65;;;;;;;;;;5022862;28;20725;-86
2022/08/20 03:21:15;;;;;;;7.97;7.18;;;;;;;;;;5032954;28;20293;-85
2022/08/20 03:23:43;;;;;;;5.25;4.75;;;;;;;;;;5033146;28;20234;-86
2022/08/20 03:26:13;;;;;;;6.97;6.38;;;;;;;;;;5033018;28;20229;-86
2022/08/20 03:28:42;;;;;;;5.68;5.18;;;;;;;;;;5033082;28;20593;-85
2022/08/20 03:31:09;;;;;;;6.60;6.00;;;;;;;;;;5033155;28;20393;-86
2022/08/20 03:33:38;;;;;;;5.13;4.72;;;;;;;;;;5032672;28;20208;-86
2022/08/20 03:36:06;;;;;;;4.20;3.85;;;;;;;;;;5032706;28;20230;-86
2022/08/20 03:38:35;;;;;;;4.20;3.83;;;;;;;;;;5032726;28;20218;-86
2022/08/20 03:41:04;;;;;;;4.30;4.00;;;;;;;;;;5033035;28;20226;-86
2022/08/20 03:43:32;;;;;;;4.28;3.90;;;;;;;;;;5032737;28;20237;-86
2022/08/20 03:46:01;;;;;;;4.70;4.30;;;;;;;;;;5032746;28;20210;-86
2022/08/20 03:48:28;;;;;;;3.55;3.25;;;;;;;;;;5024578;28;20641;-86
2022/08/20 03:50:59;;;;;;;5.57;5.07;;;;;;;;;;5013025;28;20298;-86
2022/08/20 03:53:30;;;;;;;3.80;3.50;;;;;;;;;;5012963;28;20199;-86
2022/08/20 03:56:03;;;;;;;4.95;4.55;;;;;;;;;;5011972;28;20227;-86
2022/08/20 03:58:31;;;;;;;4.55;4.15;;;;;;;;;;5012677;28;20247;-85
2022/08/20 04:00:59;;;;;;;3.38;3.15;;;;;;;;;;5012897;28;20581;-85
2022/08/20 04:03:27;;;;;;;4.50;4.15;;;;;;;;;;5012816;28;20606;-85
2022/08/20 04:05:55;;;;;;;3.45;3.25;;;;;;;;;;5012872;28;20209;-86
2022/08/20 04:08:26;;;;;;;4.13;3.83;;;;;;;;;;5012715;28;20203;-86
2022/08/20 04:10:56;;;;;;;3.72;3.42;;;;;;;;;;5012553;28;20298;-86
2022/08/20 04:13:27;;;;;;;3.78;3.47;;;;;;;;;;5012743;28;20281;-86
2022/08/20 04:15:55;;;;;;;4.32;4.03;;;;;;;;;;5012940;28;20294;-86
2022/08/20 04:18:25;;;;;;;3.28;3.08;;;;;;;;;;5012630;28;20215;-86
2022/08/20 04:20:53;;;;;;;3.25;2.95;;;;;;;;;;5013024;28;20201;-86
2022/08/20 04:23:21;;;;;;;2.92;2.70;;;;;;;;;;5012919;28;20579;-86
2022/08/20 04:25:49;;;;;;;2.92;2.72;;;;;;;;;;5012531;28;20285;-86
2022/08/20 04:28:27;;;;;;;2.88;2.67;;;;;;;;;;5012607;28;20302;-85
2022/08/20 04:30:59;;;;;;;2.70;2.50;;;;;;;;;;5017600;28;20214;-86
2022/08/20 04:33:29;;;;;;;2.20;2.10;;;;;;;;;;5013079;28;20222;-86
2022/08/20 04:36:01;;;;;;;2.90;2.70;;;;;;;;;;5012996;28;20250;-86
2022/08/20 04:38:29;;;;;;;2.95;2.72;;;;;;;;;;5012761;28;20757;-85
2022/08/20 04:40:59;;;;;;;3.80;3.50;;;;;;;;;;5012831;28;20223;-86
2022/08/20 04:43:30;;;;;;;3.70;3.40;;;;;;;;;;5012692;28;20214;-86
2022/08/20 04:46:01;;;;;;;3.15;2.95;;;;;;;;;;5012648;28;20234;-86
2022/08/20 04:48:30;;;;;;;2.95;2.75;;;;;;;;;;5012123;28;20755;-87
2022/08/20 04:51:00;;;;;;;3.47;3.17;;;;;;;;;;5012720;28;20294;-86
2022/08/20 04:53:29;;;;;;;3.10;2.90;;;;;;;;;;5012526;28;20611;-86
2022/08/20 04:56:00;;;;;;;3.33;3.13;;;;;;;;;;5012547;28;20619;-86
2022/08/20 04:58:32;;;;;;;3.70;3.40;;;;;;;;;;5012168;28;20250;-85
2022/08/20 05:01:04;;;;;;;3.17;2.97;;;;;;;;;;5012539;28;20196;-86
2022/08/20 05:03:33;;;;;;;4.07;3.80;;;;;;;;;;5012502;28;20203;-86
2022/08/20 05:06:01;;;;;;;4.15;3.85;;;;;;;;;;5012861;28;20246;-86
2022/08/20 05:08:29;;;;;;;4.35;4.00;;;;;;;;;;5014488;28;20219;-86
2022/08/20 05:10:58;;;;;;;4.90;4.57;;;;;;;;;;5015793;28;20221;-85
2022/08/20 05:13:26;;;;;;;6.00;5.53;;;;;;;;;;5015396;28;20911;-86
2022/08/20 05:15:55;;;;;;;5.65;4.70;;;;;;;;;;5015711;28;20203;-86
2022/08/20 05:18:26;;;;;;;7.38;6.68;;;;;;;;;;5015029;28;20694;-86
2022/08/20 05:21:00;;;;;;;7.70;6.97;;;;;;;;;;5016108;28;20274;-86
2022/08/20 05:23:27;;;;;;;8.00;7.20;;;;;;;;;;5016185;28;20622;-86
2022/08/20 05:25:56;;;;;;;7.65;6.85;;;;;;;;;;5015774;28;20290;-84
2022/08/20 05:28:31;;;;;;;7.93;7.13;;;;;;;;;;5015724;28;20294;-85
2022/08/20 05:31:00;;;;;;;5.53;5.03;;;;;;;;;;5015537;28;20190;-86
2022/08/20 05:33:29;;;;;;;6.00;5.40;;;;;;;;;;5015353;28;20862;-86
2022/08/20 05:35:58;;;;;;;4.43;3.40;;;;;;;;;;5015318;28;20207;-87
2022/08/20 05:38:29;;;;;;;3.90;3.08;;;;;;;;;;5015086;28;20660;-86
2022/08/20 05:40:57;;;;;;;3.13;2.83;;;;;;;;;;5015743;28;20207;-81
2022/08/20 05:43:24;;;;;;;2.45;1.83;;;;;;;;;;5017256;28;20301;-80
2022/08/20 05:45:52;;;;;;;2.28;2.08;;;;;;;;;;5017261;28;20203;-81
2022/08/20 05:48:24;;;;;;;1.55;1.45;;;;;;;;;;5024004;28;20735;-81
2022/08/20 05:50:55;;;;;;;1.75;1.65;;;;;;;;;;5036424;28;20218;-81
2022/08/20 05:53:24;;;;;;;2.25;1.60;;;;;;;;;;5036281;28;20206;-81
2022/08/20 05:55:52;;;;;;;1.73;1.50;;;;;;;;;;5035392;28;20588;-81
2022/08/20 05:58:24;;;;;;;1.80;1.70;;;;;;;;;;5035607;28;20234;-81
2022/08/20 06:00:53;;;;;;;2.13;1.50;;;;;;;;;;5036291;28;20220;-80
2022/08/20 06:06:08;;;;;;;1.70;1.42;;;;;;;;;;5036109;28;20280;-82
2022/08/20 06:08:36;;;;;;;1.50;1.40;;;;;;;;;;5036119;28;20222;-82
2022/08/20 06:11:04;;;;;;;1.50;1.40;;;;;;;;;;5037076;28;20225;-81
2022/08/20 06:13:32;;;;;;;2.17;1.30;;;;;;;;;;5036404;28;20285;-80
2022/08/20 06:16:00;;;;;;;1.38;1.27;;;;;;;;;;5038770;28;20374;-80
2022/08/20 06:18:27;;;;;;;1.42;1.33;;;;;;;;;;5027593;28;20303;-80
2022/08/20 06:20:55;;;;;;;0.98;0.98;;;;;;;;;;5016120;28;20206;-81
2022/08/20 06:23:24;;;;;;;1.02;1.02;;;;;;;;;;5015925;28;20298;-81
2022/08/20 06:25:52;;;;;;;1.13;1.02;;;;;;;;;;5015436;28;20222;-79
2022/08/20 06:28:19;;;;;;;1.10;1.10;;;;;;;;;;5015206;28;20297;-79
2022/08/20 06:30:47;;;;;;;0.98;0.98;;;;;;;;;;5015799;28;20203;-80
2022/08/20 06:33:14;;;;;;;1.08;1.05;;;;;;;;;;5014973;28;20297;-80
2022/08/20 06:35:43;;;;;;;0.90;0.90;;;;;;;;;;5015513;28;20206;-79
2022/08/20 06:38:11;;;;;;;1.33;0.95;;;;;;;;;;5014960;28;20597;-80
2022/08/20 06:40:40;;;;;;;0.77;0.77;;;;;;;;;;5015797;28;20209;-79
2022/08/20 06:43:08;;;;;;;1.00;1.00;;;;;;;;;;5014697;28;20231;-79
2022/08/20 06:45:37;;;;;;;0.88;0.88;;;;;;;;;;5014810;28;20215;-80
2022/08/20 06:48:09;;;;;;;1.10;0.95;;;;;;;;;;5019335;28;20202;-80
2022/08/20 06:50:40;;;;;;;0.70;0.70;;;;;;;;;;5057423;22;20230;-80
2022/08/20 06:53:08;;;;;;;0.60;0.60;;;;;;;;;;5036614;28;20289;-81
2022/08/20 06:55:39;;;;;;;0.52;0.52;;;;;;;;;;5036269;28;20201;-81
2022/08/20 06:58:09;;;;;;;1.25;1.05;;;;;;;;;;5036454;28;20603;-81
2022/08/20 07:00:41;;;;;;;0.63;0.63;;;;;;;;;;5035068;28;20675;-81
2022/08/20 07:03:08;;;;;;;0.80;0.80;;;;;;;;;;5034617;28;20199;-81
2022/08/20 07:05:40;;;;;;;1.05;1.05;;;;;;;;;;5035879;28;20199;-81
2022/08/20 07:08:10;;;;;;;0.70;0.70;;;;;;;;;;5034826;28;20293;-81
2022/08/20 07:10:40;;;;;;;0.90;0.90;;;;;;;;;;5033781;28;20225;-81
2022/08/20 07:13:08;;;;;;;1.48;1.00;;;;;;;;;;5035404;28;20632;-81
2022/08/20 07:15:35;;;;;;;1.38;1.27;;;;;;;;;;5034227;28;20297;-81
2022/08/20 07:18:05;;;;;;;1.63;1.45;;;;;;;;;;5031950;28;20313;-81
2022/08/20 07:20:37;;;;;;;1.80;1.70;;;;;;;;;;5031993;28;20710;-81
2022/08/20 07:23:04;;;;;;;2.30;2.10;;;;;;;;;;5033122;28;20206;-81
2022/08/20 07:25:33;;;;;;;2.58;2.38;;;;;;;;;;5034080;28;20210;-81
2022/08/20 07:28:05;;;;;;;1.98;1.88;;;;;;;;;;5034440;28;20293;-81
2022/08/20 07:33:18;;;;;;;2.60;2.22;;;;;;;;;;5037136;28;20201;-82
2022/08/20 07:35:47;;;;;;;2.78;2.58;;;;;;;;;;5036965;28;20681;-81
2022/08/20 07:38:22;;;;;;;2.20;2.10;;;;;;;;;;5034734;28;20690;-80
2022/08/20 07:40:51;;;;;;;1.40;1.30;;;;;;;;;;5037346;28;20230;-80
2022/08/20 07:43:22;;;;;;;1.98;1.83;;;;;;;;;;5036328;28;20226;-79
2022/08/20 07:45:49;;;;;;;2.00;1.90;;;;;;;;;;5035539;28;20202;-80
2022/08/20 07:48:17;;;;;;;2.95;2.75;;;;;;;;;;5036234;28;20201;-80
2022/08/20 07:50:46;;;;;;;2.08;1.98;;;;;;;;;;5036220;28;20238;-81
2022/08/20 07:53:13;;;;;;;2.17;2.08;;;;;;;;;;5034696;28;20205;-81
2022/08/20 07:55:41;;;;;;;2.13;1.70;;;;;;;;;;5037420;28;20293;-80
2022/08/20 07:58:12;;;;;;;2.22;2.10;;;;;;;;;;5037135;28;20202;-83
2022/08/20 08:00:41;;;;;;;2.45;2.25;;;;;;;;;;5036748;28;20289;-83
2022/08/20 08:03:09;;;;;;;1.92;1.83;;;;;;;;;;5036088;28;20202;-82
2022/08/20 08:05:38;;;;;;;2.53;2.33;;;;;;;;;;5037001;28;20230;-81
2022/08/20 08:08:09;;;;;;;1.90;1.80;;;;;;;;;;5036380;28;20289;-82
2022/08/20 08:10:36;;;;;;;1.23;1.23;;;;;;;;;;5035860;28;20265;-80
2022/08/20 08:13:07;;;;;;;2.20;2.00;;;;;;;;;;5035815;28;20212;-83
2022/08/20 08:15:39;;;;;;;3.05;2.83;;;;;;;;;;5035805;28;20285;-82
2022/08/20 08:18:23;;;;;;;5.80;2.80;;;;;;;;;;5035255;28;20207;-82
2022/08/20 08:20:52;;;;;;;2.10;1.98;;;;;;;;;;5036756;28;20254;-82
2022/08/20 08:23:21;;;;;;;2.10;2.00;;;;;;;;;;5035400;28;20198;-82
2022/08/20 08:25:50;;;;;;;2.53;2.33;;;;;;;;;;5035350;28;20202;-82
2022/08/20 08:28:18;;;;;;;2.92;2.70;;;;;;;;;;5035822;28;20233;-82
2022/08/20 08:30:47;;;;;;;2.45;2.25;;;;;;;;;;5033494;28;20308;-82
2022/08/20 08:33:28;;;;;;;2.03;1.92;;;;;;;;;;5033857;28;20305;-82
2022/08/20 08:35:57;;;;;;;3.28;3.05;;;;;;;;;;5032475;28;20240;-81
2022/08/20 08:38:25;;;;;;;2.00;1.90;;;;;;;;;;5034257;28;20202;-82
2022/08/20 08:40:55;;;;;;;2.40;2.22;;;;;;;;;;5032562;28;20202;-81
2022/08/20 08:43:26;;;;;;;1.73;1.63;;;;;;;;;;5037102;28;20681;-82
2022/08/20 08:46:00;;;;;;;2.65;2.45;;;;;;;;;;5037270;28;20212;-81
2022/08/20 08:48:34;;;;;;;2.83;2.65;;;;;;;;;;5037088;28;20689;-80
2022/08/20 08:51:05;;;;;;;3.03;2.83;;;;;;;;;;5036960;28;20812;-81
2022/08/20 08:53:37;;;;;;;3.13;2.83;;;;;;;;;;5038111;28;20206;-80
2022/08/20 08:56:06;;;;;;;2.65;2.45;;;;;;;;;;5037279;28;20285;-81
2022/08/20 08:58:34;;;;;;;2.25;2.15;;;;;;;;;;5037173;28;20217;-81
2022/08/20 09:01:08;;;;;;;3.03;2.72;;;;;;;;;;5036514;28;20202;-81
2022/08/20 09:03:42;;;;;;;2.65;2.38;;;;;;;;;;5037221;28;20562;-82
2022/08/20 09:06:14;;;;;;;2.40;2.25;;;;;;;;;;5037053;28;20201;-81
2022/08/20 09:08:46;;;;;;;2.30;2.20;;;;;;;;;;5036674;28;20209;-80
2022/08/20 09:11:15;;;;;;;1.95;1.85;;;;;;;;;;5035366;28;20298;-81
2022/08/20 09:13:44;;;;;;;2.75;2.55;;;;;;;;;;5035347;28;20206;-79
2022/08/20 09:16:12;;;;;;;1.67;1.58;;;;;;;;;;5036359;28;20616;-81
2022/08/20 09:18:42;;;;;;;2.17;2.08;;;;;;;;;;5035078;28;20397;-80
2022/08/20 09:21:10;;;;;;;2.10;1.90;;;;;;;;;;5034699;28;20293;-80
2022/08/20 09:23:38;;;;;;;1.95;1.85;;;;;;;;;;5035685;28;20207;-80
2022/08/20 09:26:05;;;;;;;2.25;2.15;;;;;;;;;;5035346;28;20302;-80
2022/08/20 09:28:33;;;;;;;2.92;2.72;;;;;;;;;;5035293;28;20297;-81
2022/08/20 09:31:01;;;;;;;1.52;1.42;;;;;;;;;;5036254;28;20293;-80
2022/08/20 09:33:29;;;;;;;1.73;1.63;;;;;;;;;;5036654;28;20753;-80
2022/08/20 09:35:58;;;;;;;2.15;1.95;;;;;;;;;;5036502;28;20289;-81
2022/08/20 09:38:25;;;;;;;2.10;2.00;;;;;;;;;;5035573;28;20285;-81
2022/08/20 09:40:53;;;;;;;1.70;1.60;;;;;;;;;;5035302;28;20706;-80
2022/08/20 09:43:20;;;;;;;2.00;1.90;;;;;;;;;;5035174;28;20294;-81
2022/08/20 09:45:48;;;;;;;1.67;1.58;;;;;;;;;;5035022;28;20293;-82
2022/08/20 09:48:15;;;;;;;1.42;1.40;;;;;;;;;;5034447;28;20293;-81
2022/08/20 09:50:48;;;;;;;1.30;1.27;;;;;;;;;;5034530;28;20775;-80
2022/08/20 09:53:17;;;;;;;1.10;1.10;;;;;;;;;;5033955;28;20282;-81
2022/08/20 09:55:48;;;;;;;1.42;1.33;;;;;;;;;;5034550;28;20203;-80
2022/08/20 09:58:20;;;;;;;1.40;1.30;;;;;;;;;;5034188;28;20202;-81
2022/08/20 10:00:48;;;;;;;2.15;1.30;;;;;;;;;;5034558;28;20222;-81
2022/08/20 10:03:16;;;;;;;1.60;1.50;;;;;;;;;;5034383;28;20201;-80
2022/08/20 10:05:44;;;;;;;1.15;1.15;;;;;;;;;;5034104;28;20213;-81
2022/08/20 10:08:13;;;;;;;1.33;1.27;;;;;;;;;;5034543;28;20228;-81
2022/08/20 10:10:42;;;;;;;1.42;1.33;;;;;;;;;;5034523;28;20301;-80
2022/08/20 10:13:09;;;;;;;1.15;1.15;;;;;;;;;;5034283;28;20588;-81
2022/08/20 10:15:37;;;;;;;1.15;1.15;;;;;;;;;;5033843;28;20638;-81
2022/08/20 10:18:06;;;;;;;1.33;1.25;;;;;;;;;;5033584;28;20238;-81
2022/08/20 10:20:34;;;;;;;1.23;1.17;;;;;;;;;;5033129;28;20266;-80
2022/08/20 10:23:03;;;;;;;1.00;1.00;;;;;;;;;;5033882;28;20213;-81
2022/08/20 10:25:31;;;;;;;1.20;1.20;;;;;;;;;;5033715;28;20230;-81
2022/08/20 10:28:00;;;;;;;1.27;1.25;;;;;;;;;;5033347;28;20249;-81
2022/08/20 10:30:27;;;;;;;1.30;1.30;;;;;;;;;;5033793;28;20301;-80
2022/08/20 10:32:55;;;;;;;1.20;1.10;;;;;;;;;;5033243;28;20234;-81
2022/08/20 10:35:22;;;;;;;1.02;1.02;;;;;;;;;;5032969;28;20286;-81
2022/08/20 10:37:50;;;;;;;1.17;1.15;;;;;;;;;;5033512;28;20263;-81
2022/08/20 10:40:18;;;;;;;0.98;0.98;;;;;;;;;;5033090;28;20317;-80
2022/08/20 10:42:45;;;;;;;1.00;1.00;;;;;;;;;;5033235;28;20268;-81
2022/08/20 10:45:16;;;;;;;0.77;0.77;;;;;;;;;;5033358;28;20615;-82
2022/08/20 10:47:44;;;;;;;0.90;0.90;;;;;;;;;;5033242;28;20205;-81
2022/08/20 10:50:15;;;;;;;1.10;1.10;;;;;;;;;;5032883;28;20316;-81
2022/08/20 10:52:43;;;;;;;1.10;1.10;;;;;;;;;;5032999;28;20248;-83
2022/08/20 10:55:11;;;;;;;0.80;0.80;;;;;;;;;;5033180;28;20724;-81
2022/08/20 10:57:40;;;;;;;0.95;0.95;;;;;;;;;;5032970;28;20289;-81
2022/08/20 11:00:10;;;;;;;1.00;1.00;;;;;;;;;;5033236;28;20313;-81
2022/08/20 11:02:39;;;;;;;0.85;0.85;;;;;;;;;;5033251;28;20256;-81
2022/08/20 11:05:08;;;;;;;1.10;1.10;;;;;;;;;;5033120;28;20202;-82
2022/08/20 11:07:38;;;;;;;0.90;0.90;;;;;;;;;;5032955;28;20296;-82
2022/08/20 11:10:08;;;;;;;1.00;1.00;;;;;;;;;;5033022;28;20234;-81
2022/08/20 11:12:36;;;;;;;0.80;0.80;;;;;;;;;;5033297;28;20248;-81
2022/08/20 11:15:04;;;;;;;0.65;0.65;;;;;;;;;;5033211;28;20208;-81
2022/08/20 11:17:35;;;;;;;0.68;0.68;;;;;;;;;;5032852;28;20204;-81
2022/08/20 11:20:07;;;;;;;0.70;0.70;;;;;;;;;;5032139;28;20218;-82
2022/08/20 11:22:34;;;;;;;0.82;0.82;;;;;;;;;;5032960;28;20297;-82
2022/08/20 11:25:02;;;;;;;0.73;0.73;;;;;;;;;;5032244;28;20208;-82
2022/08/20 11:27:33;;;;;;;0.80;0.80;;;;;;;;;;5032047;28;20206;-80
2022/08/20 11:30:00;;;;;;;0.60;0.60;;;;;;;;;;5049587;28;20286;-82
2022/08/20 11:32:28;;;;;;;0.85;0.85;;;;;;;;;;5056323;28;20195;-82
2022/08/20 11:34:56;;;;;;;1.08;1.02;;;;;;;;;;5056671;28;20226;-83
2022/08/20 11:37:25;;;;;;;0.82;0.82;;;;;;;;;;5043284;28;20238;-83
2022/08/20 11:39:53;;;;;;;0.60;0.60;;;;;;;;;;5034926;28;20309;-82
2022/08/20 11:42:21;;;;;;;0.90;0.90;;;;;;;;;;5035877;28;20223;-82
2022/08/20 11:44:48;;;;;;;0.75;0.75;;;;;;;;;;5034918;28;20294;-82
2022/08/20 11:47:22;;;;;;;0.60;0.60;;;;;;;;;;5035044;28;20301;-83
2022/08/20 11:49:58;;;;;;;0.88;0.88;;;;;;;;;;5034813;28;20231;-82
2022/08/20 11:52:27;;;;;;;0.70;0.70;;;;;;;;;;5015925;28;20249;-83
2022/08/20 11:54:56;;;;;;;1.00;1.00;;;;;;;;;;5015535;28;20258;-82
2022/08/20 11:57:25;;;;;;;0.98;0.98;;;;;;;;;;5016531;28;20293;-82
2022/08/20 11:59:55;;;;;;;1.30;1.20;;;;;;;;;;5014789;28;20797;-81
2022/08/20 12:02:23;;;;;;;1.60;1.50;;;;;;;;;;5016144;28;20790;-82
2022/08/20 12:04:51;;;;;;;1.33;1.23;;;;;;;;;;5014776;28;20203;-81
2022/08/20 12:07:22;;;;;;;1.20;1.20;;;;;;;;;;5015909;28;20305;-80
2022/08/20 12:09:51;;;;;;;1.50;1.10;;;;;;;;;;5014849;28;20278;-80
2022/08/20 12:12:21;;;;;;;1.40;1.30;;;;;;;;;;5017377;28;20199;-81
2022/08/20 12:14:48;;;;;;;1.85;1.08;;;;;;;;;;5015422;28;20747;-81
2022/08/20 12:17:22;;;;;;;1.63;1.52;;;;;;;;;;5016759;28;20209;-81
2022/08/20 12:19:51;;;;;;;2.45;1.77;;;;;;;;;;5019132;28;20223;-81
2022/08/20 12:22:19;;;;;;;1.85;1.60;;;;;;;;;;5018517;28;20612;-80
2022/08/20 12:24:47;;;;;;;2.20;1.92;;;;;;;;;;5020397;28;20234;-81
2022/08/20 12:27:19;;;;;;;1.50;1.40;;;;;;;;;;5017251;28;20195;-80
2022/08/20 12:29:51;;;;;;;1.73;1.63;;;;;;;;;;5017428;28;20226;-80
2022/08/20 12:32:20;;;;;;;2.20;1.88;;;;;;;;;;5017724;28;20199;-80
2022/08/20 12:34:47;;;;;;;2.05;1.80;;;;;;;;;;5018282;28;20294;-80
2022/08/20 12:37:19;;;;;;;2.03;1.83;;;;;;;;;;5018624;28;20293;-80
2022/08/20 12:39:48;;;;;;;1.80;1.70;;;;;;;;;;5018341;28;20314;-80
2022/08/20 12:42:18;;;;;;;1.67;1.58;;;;;;;;;;5018662;28;20325;-80
2022/08/20 12:44:46;;;;;;;1.73;1.63;;;;;;;;;;5017399;28;20227;-80
2022/08/20 12:47:15;;;;;;;1.92;1.83;;;;;;;;;;5018544;28;20285;-80
2022/08/20 12:49:45;;;;;;;2.22;1.85;;;;;;;;;;5051765;22;20320;-82
2022/08/20 12:52:15;;;;;;;1.80;1.70;;;;;;;;;;5065921;28;20284;-81
2022/08/20 12:54:43;;;;;;;2.08;1.98;;;;;;;;;;5075754;28;20296;-82
2022/08/20 12:57:17;;;;;;;2.22;2.13;;;;;;;;;;5075401;28;20583;-82
2022/08/20 12:59:44;;;;;;;2.83;2.63;;;;;;;;;;5075351;28;20312;-82
2022/08/20 13:02:11;;;;;;;3.13;2.70;;;;;;;;;;5075573;28;20744;-81
2022/08/20 13:04:39;;;;;;;2.88;2.67;;;;;;;;;;5075975;28;20580;-82
2022/08/20 13:07:06;;;;;;;2.40;2.20;;;;;;;;;;5075474;28;20292;-82
2022/08/20 13:09:34;;;;;;;2.42;2.22;;;;;;;;;;5076171;28;20312;-82
2022/08/20 13:12:01;;;;;;;2.10;2.00;;;;;;;;;;5075743;28;20291;-82
2022/08/20 13:14:30;;;;;;;1.90;1.80;;;;;;;;;;5075929;28;20228;-82
2022/08/20 13:16:58;;;;;;;2.95;2.08;;;;;;;;;;5075706;28;20773;-82
2022/08/20 13:19:26;;;;;;;2.35;2.15;;;;;;;;;;5075188;28;20312;-81
2022/08/20 13:21:54;;;;;;;2.55;2.38;;;;;;;;;;5059154;28;20264;-81
2022/08/20 13:24:22;;;;;;;2.45;2.25;;;;;;;;;;5055477;28;20698;-81
2022/08/20 13:26:51;;;;;;;2.20;2.10;;;;;;;;;;5055499;28;20284;-82
2022/08/20 13:29:20;;;;;;;2.70;2.50;;;;;;;;;;5053809;28;20222;-82
2022/08/20 13:31:49;;;;;;;2.72;2.53;;;;;;;;;;5055512;28;20210;-82
2022/08/20 13:34:16;;;;;;;2.10;1.90;;;;;;;;;;5055162;28;20284;-80
2022/08/20 13:36:44;;;;;;;2.00;1.90;;;;;;;;;;5054254;28;20201;-81
2022/08/20 13:39:11;;;;;;;1.70;1.60;;;;;;;;;;5054215;28;20293;-81
2022/08/20 13:41:39;;;;;;;1.92;1.83;;;;;;;;;;5055784;28;20236;-82
2022/08/20 13:44:06;;;;;;;1.65;1.55;;;;;;;;;;5054709;28;20292;-81
2022/08/20 13:46:33;;;;;;;1.92;1.83;;;;;;;;;;5053745;28;20340;-81
2022/08/20 13:49:03;;;;;;;1.60;1.50;;;;;;;;;;5053878;28;20198;-81
2022/08/20 13:51:30;;;;;;;2.00;1.90;;;;;;;;;;5054675;28;20313;-81
2022/08/20 13:53:58;;;;;;;1.90;1.80;;;;;;;;;;5054638;28;20296;-82
2022/08/20 13:56:25;;;;;;;1.90;1.80;;;;;;;;;;5054085;28;20229;-81
2022/08/20 13:58:53;;;;;;;1.25;1.25;;;;;;;;;;5054410;28;20316;-81
2022/08/20 14:01:20;;;;;;;1.67;1.58;;;;;;;;;;5054386;28;20323;-82
2022/08/20 14:03:48;;;;;;;1.60;1.50;;;;;;;;;;5054885;28;20601;-81
2022/08/20 14:06:17;;;;;;;1.63;1.52;;;;;;;;;;5053403;28;20233;-81
2022/08/20 14:08:44;;;;;;;1.55;1.45;;;;;;;;;;5053262;28;20576;-81
2022/08/20 14:11:12;;;;;;;2.03;1.92;;;;;;;;;;5052697;28;20653;-81
2022/08/20 14:13:39;;;;;;;1.40;1.35;;;;;;;;;;5053840;28;20360;-81
2022/08/20 14:16:07;;;;;;;1.60;1.50;;;;;;;;;;5053981;28;20237;-81
2022/08/20 14:18:34;;;;;;;2.00;1.90;;;;;;;;;;5055251;28;20637;-81
2022/08/20 14:21:02;;;;;;;1.42;1.40;;;;;;;;;;5052967;28;20283;-81
2022/08/20 14:23:31;;;;;;;1.40;1.30;;;;;;;;;;5053246;28;20325;-81
2022/08/20 14:25:58;;;;;;;2.08;1.98;;;;;;;;;;5053557;28;20669;-81
2022/08/20 14:28:26;;;;;;;1.90;1.80;;;;;;;;;;5053220;28;20302;-81
2022/08/20 14:30:54;;;;;;;1.67;1.58;;;;;;;;;;5053039;28;20225;-83
2022/08/20 14:33:22;;;;;;;1.70;1.60;;;;;;;;;;5053506;28;20263;-81
2022/08/20 14:35:50;;;;;;;1.70;1.60;;;;;;;;;;5053360;28;20597;-81
2022/08/20 14:38:17;;;;;;;1.92;1.83;;;;;;;;;;5053624;28;20292;-81
2022/08/20 14:40:48;;;;;;;1.95;1.85;;;;;;;;;;5053298;28;20228;-81
2022/08/20 14:43:16;;;;;;;1.80;1.70;;;;;;;;;;5053528;28;20316;-81
2022/08/20 14:45:44;;;;;;;1.60;1.50;;;;;;;;;;5053822;28;20273;-81
2022/08/20 14:48:13;;;;;;;1.60;1.50;;;;;;;;;;5053284;28;20201;-82
2022/08/20 14:50:41;;;;;;;1.77;1.67;;;;;;;;;;5053387;28;20295;-81
2022/08/20 14:53:08;;;;;;;1.88;1.77;;;;;;;;;;5053449;28;20224;-81
2022/08/20 14:55:38;;;;;;;1.70;1.60;;;;;;;;;;5053786;28;20289;-82
2022/08/20 14:58:11;;;;;;;1.60;1.50;;;;;;;;;;5052651;28;20291;-82